sensor_id;sensor_type;location;lat;lon;timestamp;pressure;altitude;pressure_sealevel;temperature
64904;BMP280;51401;48.882;12.598;2023-07-13T00:00:17;63126.00;;;20.66
64904;BMP280;51401;48.882;12.598;2023-07-13T00:02:43;63061.38;;;20.66
64904;BMP280;51401;48.882;12.598;2023-07-13T00:05:09;63147.31;;;20.66
64904;BMP280;51401;48.882;12.598;2023-07-13T00:07:35;63221.66;;;20.71
64904;BMP280;51401;48.882;12.598;2023-07-13T00:10:01;63374.28;;;20.67
64904;BMP280;51401;48.882;12.598;2023-07-13T00:12:30;63567.31;;;20.64
64904;BMP280;51401;48.882;12.598;2023-07-13T00:15:10;63788.53;;;20.61
64904;BMP280;51401;48.882;12.598;2023-07-13T00:17:37;64070.41;;;20.56
64904;BMP280;51401;48.882;12.598;2023-07-13T00:20:04;64384.16;;;20.55
64904;BMP280;51401;48.882;12.598;2023-07-13T00:22:30;64670.31;;;20.49
64904;BMP280;51401;48.882;12.598;2023-07-13T00:24:55;64851.53;;;20.45
64904;BMP280;51401;48.882;12.598;2023-07-13T00:27:22;65043.88;;;20.39
64904;BMP280;51401;48.882;12.598;2023-07-13T00:29:48;65259.00;;;20.30
64904;BMP280;51401;48.882;12.598;2023-07-13T00:32:13;65403.41;;;20.28
64904;BMP280;51401;48.882;12.598;2023-07-13T00:34:39;65496.97;;;20.25
64904;BMP280;51401;48.882;12.598;2023-07-13T00:37:06;65697.00;;;20.25
64904;BMP280;51401;48.882;12.598;2023-07-13T00:39:32;65990.34;;;20.24
64904;BMP280;51401;48.882;12.598;2023-07-13T00:41:59;66371.59;;;20.25
64904;BMP280;51401;48.882;12.598;2023-07-13T00:44:25;66674.25;;;20.25
64904;BMP280;51401;48.882;12.598;2023-07-13T00:46:51;66951.06;;;20.24
64904;BMP280;51401;48.882;12.598;2023-07-13T00:49:19;67078.56;;;20.26
64904;BMP280;51401;48.882;12.598;2023-07-13T00:51:49;67231.03;;;20.22
64904;BMP280;51401;48.882;12.598;2023-07-13T00:54:19;67362.28;;;20.23
64904;BMP280;51401;48.882;12.598;2023-07-13T00:56:49;67377.13;;;20.20
64904;BMP280;51401;48.882;12.598;2023-07-13T00:59:16;67388.22;;;20.18
64904;BMP280;51401;48.882;12.598;2023-07-13T01:01:42;67405.31;;;20.19
64904;BMP280;51401;48.882;12.598;2023-07-13T01:04:08;67291.34;;;20.17
64904;BMP280;51401;48.882;12.598;2023-07-13T01:06:37;67110.59;;;20.16
64904;BMP280;51401;48.882;12.598;2023-07-13T01:09:04;66893.44;;;20.15
64904;BMP280;51401;48.882;12.598;2023-07-13T01:11:30;66565.25;;;20.15
64904;BMP280;51401;48.882;12.598;2023-07-13T01:13:55;66446.56;;;20.08
64904;BMP280;51401;48.882;12.598;2023-07-13T01:16:26;66561.94;;;20.17
64904;BMP280;51401;48.882;12.598;2023-07-13T01:18:52;66684.84;;;20.18
64904;BMP280;51401;48.882;12.598;2023-07-13T01:21:18;66720.81;;;20.17
64904;BMP280;51401;48.882;12.598;2023-07-13T01:23:44;66723.63;;;20.15
64904;BMP280;51401;48.882;12.598;2023-07-13T01:26:10;66776.88;;;20.13
64904;BMP280;51401;48.882;12.598;2023-07-13T01:28:36;66738.09;;;20.16
64904;BMP280;51401;48.882;12.598;2023-07-13T01:31:03;66734.81;;;20.18
64904;BMP280;51401;48.882;12.598;2023-07-13T01:33:28;66773.88;;;20.18
64904;BMP280;51401;48.882;12.598;2023-07-13T01:35:54;66893.69;;;20.18
64904;BMP280;51401;48.882;12.598;2023-07-13T01:38:22;67090.06;;;20.19
64904;BMP280;51401;48.882;12.598;2023-07-13T01:40:48;67233.94;;;20.25
64904;BMP280;51401;48.882;12.598;2023-07-13T01:43:13;67518.44;;;20.25
64904;BMP280;51401;48.882;12.598;2023-07-13T01:45:39;67888.00;;;20.25
64904;BMP280;51401;48.882;12.598;2023-07-13T01:48:05;68172.44;;;20.28
64904;BMP280;51401;48.882;12.598;2023-07-13T01:50:32;68469.28;;;20.25
64904;BMP280;51401;48.882;12.598;2023-07-13T01:52:57;68604.31;;;20.24
64904;BMP280;51401;48.882;12.598;2023-07-13T01:55:23;68743.97;;;20.26
64904;BMP280;51401;48.882;12.598;2023-07-13T01:57:48;68862.53;;;20.22
64904;BMP280;51401;48.882;12.598;2023-07-13T02:00:14;68920.13;;;20.27
64904;BMP280;51401;48.882;12.598;2023-07-13T02:02:40;69187.81;;;20.24
64904;BMP280;51401;48.882;12.598;2023-07-13T02:05:06;69427.31;;;20.21
64904;BMP280;51401;48.882;12.598;2023-07-13T02:07:32;69794.66;;;20.16
64904;BMP280;51401;48.882;12.598;2023-07-13T02:09:57;69969.31;;;20.18
64904;BMP280;51401;48.882;12.598;2023-07-13T02:12:23;70051.31;;;20.14
64904;BMP280;51401;48.882;12.598;2023-07-13T02:14:48;70215.63;;;20.14
64904;BMP280;51401;48.882;12.598;2023-07-13T02:17:14;70407.22;;;20.08
64904;BMP280;51401;48.882;12.598;2023-07-13T02:19:39;70499.56;;;20.06
64904;BMP280;51401;48.882;12.598;2023-07-13T02:22:05;70643.56;;;20.04
64904;BMP280;51401;48.882;12.598;2023-07-13T02:24:30;70660.22;;;20.05
64904;BMP280;51401;48.882;12.598;2023-07-13T02:26:56;70785.41;;;20.05
64904;BMP280;51401;48.882;12.598;2023-07-13T02:29:21;70914.81;;;20.04
64904;BMP280;51401;48.882;12.598;2023-07-13T02:31:46;71019.09;;;20.07
64904;BMP280;51401;48.882;12.598;2023-07-13T02:34:12;71017.41;;;20.13
64904;BMP280;51401;48.882;12.598;2023-07-13T02:36:37;70917.88;;;20.07
64904;BMP280;51401;48.882;12.598;2023-07-13T02:39:04;70716.69;;;19.99
64904;BMP280;51401;48.882;12.598;2023-07-13T02:41:30;70524.38;;;19.95
64904;BMP280;51401;48.882;12.598;2023-07-13T02:43:55;70271.38;;;19.98
64904;BMP280;51401;48.882;12.598;2023-07-13T02:46:28;70140.50;;;19.97
64904;BMP280;51401;48.882;12.598;2023-07-13T02:48:54;70186.50;;;19.94
64904;BMP280;51401;48.882;12.598;2023-07-13T02:51:19;70112.50;;;19.93
64904;BMP280;51401;48.882;12.598;2023-07-13T02:53:44;69864.84;;;19.93
64904;BMP280;51401;48.882;12.598;2023-07-13T02:56:10;69722.41;;;19.96
64904;BMP280;51401;48.882;12.598;2023-07-13T02:58:35;69772.00;;;19.94
64904;BMP280;51401;48.882;12.598;2023-07-13T03:01:06;69752.19;;;19.95
64904;BMP280;51401;48.882;12.598;2023-07-13T03:03:32;69731.69;;;19.85
64904;BMP280;51401;48.882;12.598;2023-07-13T03:05:59;69807.44;;;19.80
64904;BMP280;51401;48.882;12.598;2023-07-13T03:08:26;69870.06;;;19.77
64904;BMP280;51401;48.882;12.598;2023-07-13T03:11:23;69865.38;;;19.78
64904;BMP280;51401;48.882;12.598;2023-07-13T03:13:49;69908.66;;;19.77
64904;BMP280;51401;48.882;12.598;2023-07-13T03:16:15;69899.81;;;19.76
64904;BMP280;51401;48.882;12.598;2023-07-13T03:18:41;69790.38;;;19.76
64904;BMP280;51401;48.882;12.598;2023-07-13T03:21:06;69683.47;;;19.78
64904;BMP280;51401;48.882;12.598;2023-07-13T03:23:32;69628.63;;;19.81
64904;BMP280;51401;48.882;12.598;2023-07-13T03:26:12;69620.81;;;19.81
64904;BMP280;51401;48.882;12.598;2023-07-13T03:28:38;69588.94;;;19.83
64904;BMP280;51401;48.882;12.598;2023-07-13T03:31:15;69549.38;;;19.82
64904;BMP280;51401;48.882;12.598;2023-07-13T03:33:41;69502.34;;;19.85
64904;BMP280;51401;48.882;12.598;2023-07-13T03:36:10;69484.09;;;19.85
64904;BMP280;51401;48.882;12.598;2023-07-13T03:38:35;69532.59;;;19.84
64904;BMP280;51401;48.882;12.598;2023-07-13T03:41:00;69459.13;;;19.83
64904;BMP280;51401;48.882;12.598;2023-07-13T03:43:26;69442.28;;;19.87
64904;BMP280;51401;48.882;12.598;2023-07-13T03:45:51;69487.03;;;19.90
64904;BMP280;51401;48.882;12.598;2023-07-13T03:48:17;69578.13;;;19.93
64904;BMP280;51401;48.882;12.598;2023-07-13T03:50:42;69620.44;;;19.91
64904;BMP280;51401;48.882;12.598;2023-07-13T03:53:08;69571.72;;;19.97
64904;BMP280;51401;48.882;12.598;2023-07-13T03:55:33;69703.63;;;19.96
64904;BMP280;51401;48.882;12.598;2023-07-13T03:58:01;69804.72;;;19.98
64904;BMP280;51401;48.882;12.598;2023-07-13T04:00:46;69955.91;;;19.98
64904;BMP280;51401;48.882;12.598;2023-07-13T04:03:11;70112.88;;;19.98
64904;BMP280;51401;48.882;12.598;2023-07-13T04:05:36;70195.78;;;19.98
64904;BMP280;51401;48.882;12.598;2023-07-13T04:08:02;70238.56;;;19.96
64904;BMP280;51401;48.882;12.598;2023-07-13T04:10:27;70259.50;;;19.94
64904;BMP280;51401;48.882;12.598;2023-07-13T04:12:53;70156.66;;;19.98
64904;BMP280;51401;48.882;12.598;2023-07-13T04:15:18;70151.31;;;20.02
64904;BMP280;51401;48.882;12.598;2023-07-13T04:17:43;70296.16;;;20.06
64904;BMP280;51401;48.882;12.598;2023-07-13T04:20:09;70471.44;;;20.04
64904;BMP280;51401;48.882;12.598;2023-07-13T04:22:34;70583.13;;;20.01
64904;BMP280;51401;48.882;12.598;2023-07-13T04:24:59;70666.06;;;20.01
64904;BMP280;51401;48.882;12.598;2023-07-13T04:27:24;70688.97;;;20.03
64904;BMP280;51401;48.882;12.598;2023-07-13T04:29:50;70697.78;;;20.06
64904;BMP280;51401;48.882;12.598;2023-07-13T04:32:16;70522.78;;;20.16
64904;BMP280;51401;48.882;12.598;2023-07-13T04:34:41;70559.63;;;20.24
64904;BMP280;51401;48.882;12.598;2023-07-13T04:37:06;70652.31;;;20.33
64904;BMP280;51401;48.882;12.598;2023-07-13T04:39:32;70839.56;;;20.37
64904;BMP280;51401;48.882;12.598;2023-07-13T04:41:57;71026.22;;;20.49
64904;BMP280;51401;48.882;12.598;2023-07-13T04:44:22;71318.44;;;20.58
64904;BMP280;51401;48.882;12.598;2023-07-13T04:46:48;71711.63;;;20.62
64904;BMP280;51401;48.882;12.598;2023-07-13T04:49:13;72203.09;;;20.65
64904;BMP280;51401;48.882;12.598;2023-07-13T04:51:38;72915.63;;;20.57
64904;BMP280;51401;48.882;12.598;2023-07-13T04:54:04;73352.03;;;20.65
64904;BMP280;51401;48.882;12.598;2023-07-13T04:56:30;73581.56;;;20.69
64904;BMP280;51401;48.882;12.598;2023-07-13T04:58:55;73993.53;;;20.71
64904;BMP280;51401;48.882;12.598;2023-07-13T05:01:20;74364.41;;;20.77
64904;BMP280;51401;48.882;12.598;2023-07-13T05:03:46;74597.19;;;20.80
64904;BMP280;51401;48.882;12.598;2023-07-13T05:06:11;74829.34;;;20.79
64904;BMP280;51401;48.882;12.598;2023-07-13T05:08:37;75049.59;;;20.92
64904;BMP280;51401;48.882;12.598;2023-07-13T05:11:04;75430.00;;;20.93
64904;BMP280;51401;48.882;12.598;2023-07-13T05:13:29;75706.06;;;20.99
64904;BMP280;51401;48.882;12.598;2023-07-13T05:15:56;76047.19;;;20.97
64904;BMP280;51401;48.882;12.598;2023-07-13T05:18:22;76527.16;;;20.82
64904;BMP280;51401;48.882;12.598;2023-07-13T05:20:56;76619.97;;;20.92
64904;BMP280;51401;48.882;12.598;2023-07-13T05:23:21;76758.72;;;20.78
64904;BMP280;51401;48.882;12.598;2023-07-13T05:25:47;76595.56;;;20.80
64904;BMP280;51401;48.882;12.598;2023-07-13T05:28:12;76525.97;;;20.88
64904;BMP280;51401;48.882;12.598;2023-07-13T05:30:37;76649.53;;;20.88
64904;BMP280;51401;48.882;12.598;2023-07-13T05:33:03;76767.13;;;20.86
64904;BMP280;51401;48.882;12.598;2023-07-13T05:35:28;77101.72;;;20.81
64904;BMP280;51401;48.882;12.598;2023-07-13T05:37:53;77294.03;;;20.77
64904;BMP280;51401;48.882;12.598;2023-07-13T05:40:19;77176.63;;;20.69
64904;BMP280;51401;48.882;12.598;2023-07-13T05:42:44;76932.53;;;20.79
64904;BMP280;51401;48.882;12.598;2023-07-13T05:45:09;76968.59;;;20.72
64904;BMP280;51401;48.882;12.598;2023-07-13T05:47:34;76830.28;;;20.91
64904;BMP280;51401;48.882;12.598;2023-07-13T05:50:00;76849.91;;;21.08
64904;BMP280;51401;48.882;12.598;2023-07-13T05:52:25;77490.69;;;20.94
64904;BMP280;51401;48.882;12.598;2023-07-13T05:54:51;77783.88;;;21.05
64904;BMP280;51401;48.882;12.598;2023-07-13T05:57:16;77791.34;;;21.18
64904;BMP280;51401;48.882;12.598;2023-07-13T05:59:41;78345.53;;;21.33
64904;BMP280;51401;48.882;12.598;2023-07-13T06:02:09;78935.38;;;21.15
64904;BMP280;51401;48.882;12.598;2023-07-13T06:04:35;79015.91;;;21.28
64904;BMP280;51401;48.882;12.598;2023-07-13T06:07:00;79699.13;;;21.16
64904;BMP280;51401;48.882;12.598;2023-07-13T06:09:26;79947.19;;;21.04
64904;BMP280;51401;48.882;12.598;2023-07-13T06:11:51;79982.16;;;21.12
64904;BMP280;51401;48.882;12.598;2023-07-13T06:14:16;80214.13;;;21.26
64904;BMP280;51401;48.882;12.598;2023-07-13T06:16:42;81207.75;;;21.28
64904;BMP280;51401;48.882;12.598;2023-07-13T06:19:07;81730.72;;;21.48
64904;BMP280;51401;48.882;12.598;2023-07-13T06:21:32;81948.16;;;21.69
64904;BMP280;51401;48.882;12.598;2023-07-13T06:23:58;82292.22;;;21.99
64904;BMP280;51401;48.882;12.598;2023-07-13T06:26:23;83327.50;;;22.27
64904;BMP280;51401;48.882;12.598;2023-07-13T06:28:48;83944.03;;;22.51
64904;BMP280;51401;48.882;12.598;2023-07-13T06:31:14;84575.00;;;22.30
64904;BMP280;51401;48.882;12.598;2023-07-13T06:33:40;84930.88;;;22.08
64904;BMP280;51401;48.882;12.598;2023-07-13T06:36:07;84978.19;;;22.28
64904;BMP280;51401;48.882;12.598;2023-07-13T06:38:33;85899.88;;;22.25
64904;BMP280;51401;48.882;12.598;2023-07-13T06:40:58;86779.19;;;21.57
64904;BMP280;51401;48.882;12.598;2023-07-13T06:43:24;86672.53;;;21.43
64904;BMP280;51401;48.882;12.598;2023-07-13T06:45:50;86661.81;;;21.29
64904;BMP280;51401;48.882;12.598;2023-07-13T06:48:17;86714.50;;;21.25
64904;BMP280;51401;48.882;12.598;2023-07-13T06:50:42;86743.25;;;21.09
64904;BMP280;51401;48.882;12.598;2023-07-13T06:53:09;86513.59;;;21.22
64904;BMP280;51401;48.882;12.598;2023-07-13T06:55:34;87097.44;;;21.53
64904;BMP280;51401;48.882;12.598;2023-07-13T06:58:00;87634.84;;;22.03
64904;BMP280;51401;48.882;12.598;2023-07-13T07:00:25;87910.91;;;21.81
64904;BMP280;51401;48.882;12.598;2023-07-13T07:02:50;87772.34;;;22.04
64904;BMP280;51401;48.882;12.598;2023-07-13T07:05:16;87926.19;;;22.12
64904;BMP280;51401;48.882;12.598;2023-07-13T07:07:41;88065.88;;;22.46
64904;BMP280;51401;48.882;12.598;2023-07-13T07:10:07;88475.44;;;22.55
64904;BMP280;51401;48.882;12.598;2023-07-13T07:12:32;88534.00;;;23.31
64904;BMP280;51401;48.882;12.598;2023-07-13T07:14:58;89153.03;;;24.40
64904;BMP280;51401;48.882;12.598;2023-07-13T07:17:23;89979.16;;;24.33
64904;BMP280;51401;48.882;12.598;2023-07-13T07:19:48;90353.59;;;24.56
64904;BMP280;51401;48.882;12.598;2023-07-13T07:22:14;90068.25;;;24.95
64904;BMP280;51401;48.882;12.598;2023-07-13T07:24:39;90446.25;;;25.66
64904;BMP280;51401;48.882;12.598;2023-07-13T07:27:05;91156.63;;;26.34
64904;BMP280;51401;48.882;12.598;2023-07-13T07:29:30;94062.25;;;25.92
64904;BMP280;51401;48.882;12.598;2023-07-13T07:31:55;94614.34;;;25.40
64904;BMP280;51401;48.882;12.598;2023-07-13T07:34:21;94602.09;;;26.48
64904;BMP280;51401;48.882;12.598;2023-07-13T07:36:46;95213.56;;;26.91
64904;BMP280;51401;48.882;12.598;2023-07-13T07:39:12;95730.69;;;25.74
64904;BMP280;51401;48.882;12.598;2023-07-13T07:41:37;95742.78;;;25.08
64904;BMP280;51401;48.882;12.598;2023-07-13T07:44:04;95060.97;;;25.98
64904;BMP280;51401;48.882;12.598;2023-07-13T07:46:29;94499.47;;;24.54
64904;BMP280;51401;48.882;12.598;2023-07-13T07:48:55;94189.41;;;25.51
64904;BMP280;51401;48.882;12.598;2023-07-13T07:51:21;94532.13;;;25.40
64904;BMP280;51401;48.882;12.598;2023-07-13T07:53:47;94409.69;;;23.67
64904;BMP280;51401;48.882;12.598;2023-07-13T07:56:12;94432.09;;;24.64
64904;BMP280;51401;48.882;12.598;2023-07-13T07:58:38;94478.06;;;24.76
64904;BMP280;51401;48.882;12.598;2023-07-13T08:01:04;94511.44;;;24.79
64904;BMP280;51401;48.882;12.598;2023-07-13T08:03:29;94616.22;;;25.14
64904;BMP280;51401;48.882;12.598;2023-07-13T08:05:55;94535.38;;;24.48
64904;BMP280;51401;48.882;12.598;2023-07-13T08:08:20;94391.19;;;25.62
64904;BMP280;51401;48.882;12.598;2023-07-13T08:10:45;94898.94;;;25.02
64904;BMP280;51401;48.882;12.598;2023-07-13T08:13:11;95335.97;;;25.33
64904;BMP280;51401;48.882;12.598;2023-07-13T08:15:37;95482.16;;;24.72
64904;BMP280;51401;48.882;12.598;2023-07-13T08:18:03;95016.25;;;24.34
64904;BMP280;51401;48.882;12.598;2023-07-13T08:20:28;95151.22;;;24.98
64904;BMP280;51401;48.882;12.598;2023-07-13T08:22:53;95930.91;;;25.99
64904;BMP280;51401;48.882;12.598;2023-07-13T08:25:19;97032.41;;;26.70
64904;BMP280;51401;48.882;12.598;2023-07-13T08:27:45;97136.72;;;26.63
64904;BMP280;51401;48.882;12.598;2023-07-13T08:30:11;97101.34;;;26.68
64904;BMP280;51401;48.882;12.598;2023-07-13T08:32:36;97017.22;;;25.50
64904;BMP280;51401;48.882;12.598;2023-07-13T08:35:03;96993.25;;;25.89
64904;BMP280;51401;48.882;12.598;2023-07-13T08:37:29;96849.53;;;25.64
64904;BMP280;51401;48.882;12.598;2023-07-13T08:39:54;96787.66;;;25.51
64904;BMP280;51401;48.882;12.598;2023-07-13T08:42:31;96480.31;;;25.20
64904;BMP280;51401;48.882;12.598;2023-07-13T08:48:09;96881.31;;;26.04
64904;BMP280;51401;48.882;12.598;2023-07-13T08:50:46;97160.34;;;26.72
64904;BMP280;51401;48.882;12.598;2023-07-13T08:53:15;97400.19;;;26.98
64904;BMP280;51401;48.882;12.598;2023-07-13T08:55:40;97553.94;;;26.76
64904;BMP280;51401;48.882;12.598;2023-07-13T08:58:15;97574.69;;;27.44
64904;BMP280;51401;48.882;12.598;2023-07-13T09:00:52;97632.38;;;27.86
64904;BMP280;51401;48.882;12.598;2023-07-13T09:03:23;97564.19;;;27.17
64904;BMP280;51401;48.882;12.598;2023-07-13T09:05:58;97609.44;;;27.22
64904;BMP280;51401;48.882;12.598;2023-07-13T09:11:30;97681.25;;;28.92
64904;BMP280;51401;48.882;12.598;2023-07-13T09:16:28;97687.72;;;27.70
64904;BMP280;51401;48.882;12.598;2023-07-13T09:18:56;97707.06;;;28.55
64904;BMP280;51401;48.882;12.598;2023-07-13T09:21:31;97681.88;;;28.16
64904;BMP280;51401;48.882;12.598;2023-07-13T09:24:04;97708.31;;;28.49
64904;BMP280;51401;48.882;12.598;2023-07-13T09:26:41;97757.28;;;29.14
64904;BMP280;51401;48.882;12.598;2023-07-13T09:29:14;97734.94;;;28.88
64904;BMP280;51401;48.882;12.598;2023-07-13T09:31:49;97732.63;;;28.06
64904;BMP280;51401;48.882;12.598;2023-07-13T09:34:18;97736.56;;;27.88
64904;BMP280;51401;48.882;12.598;2023-07-13T09:36:43;97754.19;;;27.41
64904;BMP280;51401;48.882;12.598;2023-07-13T09:39:37;97730.00;;;28.69
64904;BMP280;51401;48.882;12.598;2023-07-13T09:42:20;97760.19;;;29.16
64904;BMP280;51401;48.882;12.598;2023-07-13T09:45:01;97755.16;;;28.50
64904;BMP280;51401;48.882;12.598;2023-07-13T09:47:32;97743.03;;;27.48
64904;BMP280;51401;48.882;12.598;2023-07-13T09:50:09;97742.78;;;27.46
64904;BMP280;51401;48.882;12.598;2023-07-13T09:52:43;97730.78;;;28.30
64904;BMP280;51401;48.882;12.598;2023-07-13T09:55:36;97792.13;;;29.27
64904;BMP280;51401;48.882;12.598;2023-07-13T09:58:17;97780.41;;;28.83
64904;BMP280;51401;48.882;12.598;2023-07-13T10:00:55;97742.53;;;27.44
64904;BMP280;51401;48.882;12.598;2023-07-13T10:03:30;97774.28;;;28.54
64904;BMP280;51401;48.882;12.598;2023-07-13T10:06:20;97778.22;;;29.34
64904;BMP280;51401;48.882;12.598;2023-07-13T10:08:47;97757.44;;;28.69
64904;BMP280;51401;48.882;12.598;2023-07-13T10:11:28;97780.91;;;28.42
64904;BMP280;51401;48.882;12.598;2023-07-13T10:14:08;97770.06;;;28.29
64904;BMP280;51401;48.882;12.598;2023-07-13T10:16:35;97768.63;;;28.28
64904;BMP280;51401;48.882;12.598;2023-07-13T10:19:12;97766.56;;;27.22
64904;BMP280;51401;48.882;12.598;2023-07-13T10:21:56;97768.25;;;27.20
64904;BMP280;51401;48.882;12.598;2023-07-13T10:24:23;97768.78;;;27.96
64904;BMP280;51401;48.882;12.598;2023-07-13T10:26:57;97748.41;;;27.37
64904;BMP280;51401;48.882;12.598;2023-07-13T10:29:27;97766.31;;;26.99
64904;BMP280;51401;48.882;12.598;2023-07-13T10:31:53;97793.06;;;28.37
64904;BMP280;51401;48.882;12.598;2023-07-13T10:34:19;97790.16;;;28.75
64904;BMP280;51401;48.882;12.598;2023-07-13T10:36:47;97784.50;;;28.10
64904;BMP280;51401;48.882;12.598;2023-07-13T10:39:21;97813.69;;;29.06
64904;BMP280;51401;48.882;12.598;2023-07-13T10:42:01;97806.31;;;28.54
64904;BMP280;51401;48.882;12.598;2023-07-13T10:44:30;97798.25;;;28.19
64904;BMP280;51401;48.882;12.598;2023-07-13T10:47:03;97785.16;;;28.90
64904;BMP280;51401;48.882;12.598;2023-07-13T10:49:31;97798.34;;;29.11
64904;BMP280;51401;48.882;12.598;2023-07-13T10:51:57;97791.44;;;28.29
64904;BMP280;51401;48.882;12.598;2023-07-13T10:54:32;97786.31;;;27.81
64904;BMP280;51401;48.882;12.598;2023-07-13T10:57:18;97786.66;;;27.02
64904;BMP280;51401;48.882;12.598;2023-07-13T11:00:14;97804.53;;;27.61
64904;BMP280;51401;48.882;12.598;2023-07-13T11:02:35;97792.06;;;28.46
64904;BMP280;51401;48.882;12.598;2023-07-13T11:05:16;97789.78;;;27.49
64904;BMP280;51401;48.882;12.598;2023-07-13T11:08:23;97759.47;;;27.57
64904;BMP280;51401;48.882;12.598;2023-07-13T11:10:57;97780.78;;;27.62
64904;BMP280;51401;48.882;12.598;2023-07-13T11:18:50;97791.94;;;28.22
64904;BMP280;51401;48.882;12.598;2023-07-13T11:21:18;97794.66;;;28.11
64904;BMP280;51401;48.882;12.598;2023-07-13T11:23:51;97784.47;;;27.49
64904;BMP280;51401;48.882;12.598;2023-07-13T11:31:55;97816.97;;;29.22
64904;BMP280;51401;48.882;12.598;2023-07-13T11:34:27;97813.91;;;29.07
64904;BMP280;51401;48.882;12.598;2023-07-13T11:36:54;97803.75;;;27.76
64904;BMP280;51401;48.882;12.598;2023-07-13T11:39:42;97815.59;;;29.10
64904;BMP280;51401;48.882;12.598;2023-07-13T11:42:13;97824.09;;;29.09
64904;BMP280;51401;48.882;12.598;2023-07-13T11:44:46;97811.16;;;29.65
64904;BMP280;51401;48.882;12.598;2023-07-13T11:47:22;97826.50;;;29.83
64904;BMP280;51401;48.882;12.598;2023-07-13T11:49:49;97825.56;;;30.04
64904;BMP280;51401;48.882;12.598;2023-07-13T11:52:20;97842.75;;;31.06
64904;BMP280;51401;48.882;12.598;2023-07-13T11:54:49;97822.88;;;31.02
64904;BMP280;51401;48.882;12.598;2023-07-13T11:59:55;97839.06;;;31.22
64904;BMP280;51401;48.882;12.598;2023-07-13T12:02:36;97842.53;;;30.43
64904;BMP280;51401;48.882;12.598;2023-07-13T12:05:03;97840.16;;;30.21
64904;BMP280;51401;48.882;12.598;2023-07-13T12:07:31;97834.56;;;28.78
64904;BMP280;51401;48.882;12.598;2023-07-13T12:10:27;97823.53;;;29.68
64904;BMP280;51401;48.882;12.598;2023-07-13T12:13:04;97808.94;;;29.22
64904;BMP280;51401;48.882;12.598;2023-07-13T12:15:38;97806.66;;;29.08
64904;BMP280;51401;48.882;12.598;2023-07-13T12:18:19;97808.91;;;29.51
64904;BMP280;51401;48.882;12.598;2023-07-13T12:20:46;97819.19;;;30.25
64904;BMP280;51401;48.882;12.598;2023-07-13T12:23:33;97805.91;;;30.81
64904;BMP280;51401;48.882;12.598;2023-07-13T12:26:02;97810.97;;;30.54
64904;BMP280;51401;48.882;12.598;2023-07-13T12:28:38;97819.41;;;30.58
64904;BMP280;51401;48.882;12.598;2023-07-13T12:31:06;97804.44;;;31.37
64904;BMP280;51401;48.882;12.598;2023-07-13T12:33:33;97810.75;;;30.70
64904;BMP280;51401;48.882;12.598;2023-07-13T12:36:04;97817.19;;;30.07
64904;BMP280;51401;48.882;12.598;2023-07-13T12:38:31;97813.00;;;31.22
64904;BMP280;51401;48.882;12.598;2023-07-13T12:40:58;97793.53;;;29.75
64904;BMP280;51401;48.882;12.598;2023-07-13T12:43:24;97793.31;;;31.20
64904;BMP280;51401;48.882;12.598;2023-07-13T12:46:13;97799.56;;;31.86
64904;BMP280;51401;48.882;12.598;2023-07-13T12:48:41;97808.31;;;31.99
64904;BMP280;51401;48.882;12.598;2023-07-13T12:51:10;97808.25;;;31.66
64904;BMP280;51401;48.882;12.598;2023-07-13T12:53:40;97810.22;;;31.53
64904;BMP280;51401;48.882;12.598;2023-07-13T12:56:18;97803.97;;;31.96
64904;BMP280;51401;48.882;12.598;2023-07-13T12:58:45;97806.28;;;31.03
64904;BMP280;51401;48.882;12.598;2023-07-13T13:01:13;97807.38;;;31.97
64904;BMP280;51401;48.882;12.598;2023-07-13T13:03:41;97803.34;;;31.90
64904;BMP280;51401;48.882;12.598;2023-07-13T13:08:46;97782.66;;;31.15
64904;BMP280;51401;48.882;12.598;2023-07-13T13:11:13;97794.03;;;32.04
64904;BMP280;51401;48.882;12.598;2023-07-13T13:13:41;97792.38;;;31.43
64904;BMP280;51401;48.882;12.598;2023-07-13T13:16:17;97788.78;;;31.41
64904;BMP280;51401;48.882;12.598;2023-07-13T13:18:44;97783.44;;;30.41
64904;BMP280;51401;48.882;12.598;2023-07-13T13:21:10;97779.56;;;31.36
64904;BMP280;51401;48.882;12.598;2023-07-13T13:23:36;97780.06;;;31.73
64904;BMP280;51401;48.882;12.598;2023-07-13T13:26:02;97786.63;;;32.17
64904;BMP280;51401;48.882;12.598;2023-07-13T13:28:27;97786.34;;;32.21
64904;BMP280;51401;48.882;12.598;2023-07-13T13:30:53;97785.44;;;30.96
64904;BMP280;51401;48.882;12.598;2023-07-13T13:33:21;97766.63;;;29.03
64904;BMP280;51401;48.882;12.598;2023-07-13T13:35:47;97763.53;;;29.22
64904;BMP280;51401;48.882;12.598;2023-07-13T13:38:14;97762.78;;;29.87
64904;BMP280;51401;48.882;12.598;2023-07-13T13:40:41;97776.38;;;30.07
64904;BMP280;51401;48.882;12.598;2023-07-13T13:43:17;97773.53;;;30.36
64904;BMP280;51401;48.882;12.598;2023-07-13T13:45:44;97762.06;;;31.48
64904;BMP280;51401;48.882;12.598;2023-07-13T13:48:18;97769.31;;;31.86
64904;BMP280;51401;48.882;12.598;2023-07-13T13:50:44;97781.44;;;31.41
64904;BMP280;51401;48.882;12.598;2023-07-13T13:53:11;97787.13;;;31.38
64904;BMP280;51401;48.882;12.598;2023-07-13T13:55:37;97788.78;;;31.28
64904;BMP280;51401;48.882;12.598;2023-07-13T13:58:03;97778.88;;;31.36
64904;BMP280;51401;48.882;12.598;2023-07-13T14:00:29;97778.25;;;31.04
64904;BMP280;51401;48.882;12.598;2023-07-13T14:02:54;97768.94;;;32.14
64904;BMP280;51401;48.882;12.598;2023-07-13T14:05:24;97772.00;;;32.18
64904;BMP280;51401;48.882;12.598;2023-07-13T14:07:53;97775.69;;;31.95
64904;BMP280;51401;48.882;12.598;2023-07-13T14:10:19;97785.75;;;32.02
64904;BMP280;51401;48.882;12.598;2023-07-13T14:12:47;97775.03;;;31.69
64904;BMP280;51401;48.882;12.598;2023-07-13T14:15:21;97776.56;;;32.51
64904;BMP280;51401;48.882;12.598;2023-07-13T14:17:46;97775.75;;;31.70
64904;BMP280;51401;48.882;12.598;2023-07-13T14:20:15;97776.56;;;30.76
64904;BMP280;51401;48.882;12.598;2023-07-13T14:22:40;97773.69;;;30.25
64904;BMP280;51401;48.882;12.598;2023-07-13T14:25:14;97776.84;;;30.72
64904;BMP280;51401;48.882;12.598;2023-07-13T14:27:40;97784.09;;;31.03